Map

Track Data

SID SEASON NUMBER BASIN SUBBASIN NAME ISO_TIME NATURE LAT LON WMO_WIND WMO_PRES WMO_AGENCY TRACK_TYPE DIST2LAND LANDFALL IFLAG USA_AGENCY USA_ATCF_ID USA_LAT USA_LON USA_RECORD USA_STATUS USA_WIND USA_PRES USA_SSHS USA_R34_NE USA_R34_SE USA_R34_SW USA_R34_NW USA_R50_NE USA_R50_SE USA_R50_SW USA_R50_NW USA_R64_NE USA_R64_SE USA_R64_SW USA_R64_NW USA_POCI USA_ROCI USA_RMW USA_EYE TOKYO_LAT TOKYO_LON TOKYO_GRADE TOKYO_WIND TOKYO_PRES TOKYO_R50_DIR TOKYO_R50_LONG TOKYO_R50_SHORT TOKYO_R30_DIR TOKYO_R30_LONG TOKYO_R30_SHORT TOKYO_LAND CMA_LAT CMA_LON CMA_CAT CMA_WIND CMA_PRES HKO_LAT HKO_LON HKO_CAT HKO_WIND HKO_PRES NEWDELHI_LAT NEWDELHI_LON NEWDELHI_GRADE NEWDELHI_WIND NEWDELHI_PRES NEWDELHI_CI NEWDELHI_DP NEWDELHI_POCI REUNION_LAT REUNION_LON REUNION_TYPE REUNION_WIND REUNION_PRES REUNION_TNUM REUNION_CI REUNION_RMW REUNION_R34_NE REUNION_R34_SE REUNION_R34_SW REUNION_R34_NW REUNION_R50_NE REUNION_R50_SE REUNION_R50_SW REUNION_R50_NW REUNION_R64_NE REUNION_R64_SE REUNION_R64_SW REUNION_R64_NW BOM_LAT BOM_LON BOM_TYPE BOM_WIND BOM_PRES BOM_TNUM BOM_CI BOM_RMW BOM_R34_NE BOM_R34_SE BOM_R34_SW BOM_R34_NW BOM_R50_NE BOM_R50_SE BOM_R50_SW BOM_R50_NW BOM_R64_NE BOM_R64_SE BOM_R64_SW BOM_R64_NW BOM_ROCI BOM_POCI BOM_EYE BOM_POS_METHOD BOM_PRES_METHOD NADI_LAT NADI_LON NADI_CAT NADI_WIND NADI_PRES WELLINGTON_LAT WELLINGTON_LON WELLINGTON_WIND WELLINGTON_PRES DS824_LAT DS824_LON DS824_STAGE DS824_WIND DS824_PRES TD9636_LAT TD9636_LON TD9636_STAGE TD9636_WIND TD9636_PRES TD9635_LAT TD9635_LON TD9635_WIND TD9635_PRES TD9635_ROCI NEUMANN_LAT NEUMANN_LON NEUMANN_CLASS NEUMANN_WIND NEUMANN_PRES MLC_LAT MLC_LON MLC_CLASS MLC_WIND MLC_PRES USA_GUST BOM_GUST BOM_GUST_PER REUNION_GUST REUNION_GUST_PER USA_SEAHGT USA_SEARAD_NE USA_SEARAD_SE USA_SEARAD_SW USA_SEARAD_NW STORM_SPEED STORM_DIR
1926217N18087 1926 29 NI BB NOT_NAMED 1926-08-05 00:00:00 TS 17.5000 87.0000 main 284 278 _________O____ -1 17.5000 87.0000 TC 30 2 45
1926217N18087 1926 29 NI BB NOT_NAMED 1926-08-05 03:00:00 TS 17.5683 87.0733 main 278 278 _________PO___ -1 17.6025 87.1100 TC 30 17.5000 87.0000 1 2 44
1926217N18087 1926 29 NI BB NOT_NAMED 1926-08-05 06:00:00 TS 17.6544 87.1525 main 270 270 _________OP___ -1 17.7000 87.2000 TC 30 17.5860 87.0812 1 2 39
1926217N18087 1926 29 NI BB NOT_NAMED 1926-08-05 09:00:00 TS 17.7432 87.2157 main 270 260 _________PP___ -1 17.7925 87.2575 TC 30 17.6775 87.1600 1 2 31
1926217N18087 1926 29 NI BB NOT_NAMED 1926-08-05 12:00:00 TS 17.8402 87.2669 main 263 242 _________OP___ -1 17.9000 87.3000 TC 30 17.7803 87.2338 1 3 24
1926217N18087 1926 29 NI BB NOT_NAMED 1926-08-05 15:00:00 TS 17.9713 87.3287 main 242 237 _________PO___ -1 18.0425 87.3575 TC 30 17.9000 87.3000 1 3 21
1926217N18087 1926 29 NI BB NOT_NAMED 1926-08-05 18:00:00 TS 18.1198 87.3778 main 237 217 _________OP___ -1 18.2000 87.4000 TC 30 18.0397 87.3556 1 3 12
1926217N18087 1926 29 NI BB NOT_NAMED 1926-08-05 21:00:00 TS 18.2712 87.4050 main 217 207 _________PP___ -1 18.3500 87.4150 TC 30 18.1925 87.3949 1 3 0
1926217N18087 1926 29 NI BB NOT_NAMED 1926-08-06 00:00:00 TS 18.4245 87.4059 main 207 188 _________OP___ -1 18.5000 87.4000 TC 30 18.3490 87.4118 1 3 0
1926217N18087 1926 29 NI BB NOT_NAMED 1926-08-06 03:00:00 TS 18.5787 87.3825 main 188 173 _________PO___ -1 18.6575 87.3650 TC 30 18.5000 87.4000 1 3 344
1926217N18087 1926 29 NI BB NOT_NAMED 1926-08-06 06:00:00 TS 18.7141 87.3249 main 173 158 _________OP___ -1 18.8000 87.3000 TC 30 18.6282 87.3498 1 3 331
1926217N18087 1926 29 NI BB NOT_NAMED 1926-08-06 09:00:00 TS 18.8250 87.2363 main 158 143 _________PP___ -1 18.9000 87.2000 TC 30 18.7500 87.2726 1 3 322
1926217N18087 1926 29 NI BB NOT_NAMED 1926-08-06 12:00:00 TS 18.9360 87.1421 main 143 124 _________OP___ -1 19.0000 87.1000 TC 30 18.8719 87.1841 1 3 327
1926217N18087 1926 29 NI BB NOT_NAMED 1926-08-06 15:00:00 TS 19.0712 87.0712 main 124 115 _________PO___ -1 19.1425 87.0425 TC 30 19.0000 87.1000 1 3 345
1926217N18087 1926 29 NI BB NOT_NAMED 1926-08-06 18:00:00 TS 19.2006 87.0754 main 115 107 _________OP___ -1 19.3000 87.0000 TC 30 19.1012 87.1508 1 2 8
1926217N18087 1926 29 NI BB NOT_NAMED 1926-08-06 21:00:00 TS 19.3064 87.1120 main 107 84 _________PP___ -1 19.3972 87.0318 TC 30 19.2156 87.1921 1 3 349
1926217N18087 1926 29 NI BB NOT_NAMED 1926-08-07 00:00:00 TS 19.4861 87.0187 main 84 38 _________OP___ -1 19.6000 86.9000 TC 30 19.3723 87.1375 1 7 321
1926217N18087 1926 29 NI BB NOT_NAMED 1926-08-07 03:00:00 TS 19.8387 86.6603 main 38 0 _________PO___ -1 20.0774 86.4206 TC 30 19.6000 86.9000 1 12 311
1926217N18087 1926 29 NI BB NOT_NAMED 1926-08-07 06:00:00 TS 20.2851 86.0380 main 0 0 _________OP___ -1 20.6000 85.7000 TC 30 19.9701 86.3760 1 16 303
1926217N18087 1926 29 NI BB NOT_NAMED 1926-08-07 09:00:00 TS 20.6736 85.2682 main 0 0 _________PP___ -1 20.9453 84.8723 TC 30 20.4020 85.6641 1 17 296
1926217N18087 1926 29 NI BB NOT_NAMED 1926-08-07 12:00:00 TS 21.0163 84.4224 main 0 0 _________OP___ -1 21.2000 84.0000 TC 30 20.8326 84.8447 1 17 293
1926217N18087 1926 29 NI BB NOT_NAMED 1926-08-07 15:00:00 TS 21.3147 83.6174 main 0 0 _________PO___ -1 21.4295 83.2347 TC 30 21.2000 84.0000 1 15 290
1926217N18087 1926 29 NI BB NOT_NAMED 1926-08-07 18:00:00 TS 21.5195 82.8987 main 0 0 _________OP___ -1 21.6000 82.5000 TC 30 21.4591 83.1976 1 14 284
1926217N18087 1926 29 NI BB NOT_NAMED 1926-08-07 21:00:00 TS 21.6615 82.1661 main 0 0 _________PP___ -1 21.7158 81.7552 TC 30 21.6253 82.4400 1 13 280
1926217N18087 1926 29 NI BB NOT_NAMED 1926-08-08 00:00:00 TS 21.7527 81.4750 main 0 0 _________OP___ -1 21.8000 81.0000 TC 30 21.7290 81.7125 1 11 277
1926217N18087 1926 29 NI BB NOT_NAMED 1926-08-08 03:00:00 NR 21.8000 81.0000 main 0 __________O___ -1 TC 21.8000 81.0000 1 9 276

About IBTrACS Database

This database is a web-friendly format of International Best Track Archive for Climate Stewardship (IBTrACS), a global best track data archive curated by NOAA dating back to 1842.

Updated: 2021-10-08